Airfield :
LOGIN :

Register | Disclaimer

   EN    FR    IT 

 










Legend :    VFR   Marginal VFR   IFR   Intensive IFR   Very Intensive IFR
Visi :
Ceiling :
>= 8 km
>= 3000ft
5 to 8 km
1000 to 3000 ft
1500m to 5 km
500 to 1000 ft
800 to 1500m
200 to 500 ft
< 800m
< 200 ft
Symbols :   Thunderstorms  Fog  Heavy snow  Heavy precipitations  Wind > 20 kt
SIGMETs :     Misc.  Thunderstorms  Icing  Turbulence  Mountain Waves  Volcanic Ashes






- Airport Elevation : 405 ft
- IATA code : ODH


EGVO - RAF Odiham

CURRENT METAR :
  • 172150Z 03009KT 2000 RA SCT003 SCT017 BKN032 16/16 Q1014 RMK YLO2

EXPIRED METARs :
  • 172122Z 01007KT 1500 -RADZ BKN002 17/16 Q1014 TEMPO 2500 -RA SCT003 RMK AMB TEMPO YLO2
  • 172050Z 36006KT 2500 -RA SCT003 OVC010 17/16 Q1014 TEMPO 1500 -RADZ BKN002 RMK YLO2 TEMPO AMB
  • 172020Z 35006KT 3500 -RA FEW003 BKN014 17/16 Q1013 TEMPO SCT005 RMK YLO1 TEMPO YLO1

TAF AMD TAF EGVO
Valid from the 17 at 21:00 until the 18 at 09:00 UTC


172100Z 1721/1809 02005KT 9999 -RA BKN045
TEMPO 1721/1809 4000 RA SCT010 BKN030
PROB40
TEMPO 1721/1809 1500 -RADZ BKN002



MET'MAP, your aeronautical weather chart ! - Copyright ORBIFLY December 2007 - Disclaimer

ORBIFLY MET'MAP TEAM :

Programming & Development : Alexandra Zaïnal
Concept & original design : Baudouin d'Aumeries
Assistance for programming : Marc-Olivier Méhu
Technical & hardware support : Manuel Goepfert

Contact : metmap@orbifly.com




SOURCES & CREDITS :

   NOAA